sensor_id;sensor_type;location;lat;lon;timestamp;pressure;altitude;pressure_sealevel;temperature;humidity
57606;BME280;43430;48.204;11.556;2022-12-07T00:00:29;96011.44;;;1.69;100.00
57606;BME280;43430;48.204;11.556;2022-12-07T00:02:55;96001.56;;;1.64;100.00
57606;BME280;43430;48.204;11.556;2022-12-07T00:05:20;96017.16;;;1.56;100.00
57606;BME280;43430;48.204;11.556;2022-12-07T00:07:46;96008.25;;;1.58;100.00
57606;BME280;43430;48.204;11.556;2022-12-07T00:10:11;96008.06;;;1.60;100.00
57606;BME280;43430;48.204;11.556;2022-12-07T00:12:36;96001.41;;;1.65;100.00
57606;BME280;43430;48.204;11.556;2022-12-07T00:15:02;95994.88;;;1.61;100.00
57606;BME280;43430;48.204;11.556;2022-12-07T00:17:27;95998.63;;;1.67;100.00
57606;BME280;43430;48.204;11.556;2022-12-07T00:19:53;96002.84;;;1.68;100.00
57606;BME280;43430;48.204;11.556;2022-12-07T00:22:18;95995.25;;;1.58;100.00
57606;BME280;43430;48.204;11.556;2022-12-07T00:24:43;95999.44;;;1.67;100.00
57606;BME280;43430;48.204;11.556;2022-12-07T00:27:09;95993.59;;;1.57;100.00
57606;BME280;43430;48.204;11.556;2022-12-07T00:29:34;95986.63;;;1.58;100.00
57606;BME280;43430;48.204;11.556;2022-12-07T00:31:59;95989.06;;;1.51;100.00
57606;BME280;43430;48.204;11.556;2022-12-07T00:34:24;95999.97;;;1.38;100.00
57606;BME280;43430;48.204;11.556;2022-12-07T00:36:50;95996.72;;;1.36;100.00
57606;BME280;43430;48.204;11.556;2022-12-07T00:39:16;95993.97;;;1.38;100.00
57606;BME280;43430;48.204;11.556;2022-12-07T00:41:41;95994.78;;;1.38;100.00
57606;BME280;43430;48.204;11.556;2022-12-07T00:44:07;95998.00;;;1.40;100.00
57606;BME280;43430;48.204;11.556;2022-12-07T00:46:32;95998.50;;;1.44;100.00
57606;BME280;43430;48.204;11.556;2022-12-07T00:48:58;96003.38;;;1.55;100.00
57606;BME280;43430;48.204;11.556;2022-12-07T00:51:24;96005.16;;;1.47;100.00
57606;BME280;43430;48.204;11.556;2022-12-07T00:53:50;96001.56;;;1.48;100.00
57606;BME280;43430;48.204;11.556;2022-12-07T00:56:25;95996.91;;;1.35;100.00
57606;BME280;43430;48.204;11.556;2022-12-07T01:01:21;96001.25;;;1.51;100.00
57606;BME280;43430;48.204;11.556;2022-12-07T01:03:47;96000.63;;;1.49;100.00
57606;BME280;43430;48.204;11.556;2022-12-07T01:06:17;95991.84;;;1.50;100.00
57606;BME280;43430;48.204;11.556;2022-12-07T01:08:43;95998.66;;;1.51;100.00
57606;BME280;43430;48.204;11.556;2022-12-07T01:11:11;95998.97;;;1.48;100.00
57606;BME280;43430;48.204;11.556;2022-12-07T01:13:36;95993.28;;;1.60;100.00
57606;BME280;43430;48.204;11.556;2022-12-07T01:16:04;95994.09;;;1.61;100.00
57606;BME280;43430;48.204;11.556;2022-12-07T01:18:31;95992.94;;;1.63;100.00
57606;BME280;43430;48.204;11.556;2022-12-07T01:21:09;96002.19;;;1.58;100.00
57606;BME280;43430;48.204;11.556;2022-12-07T01:23:36;95997.69;;;1.43;100.00
57606;BME280;43430;48.204;11.556;2022-12-07T01:26:04;95995.25;;;1.42;100.00
57606;BME280;43430;48.204;11.556;2022-12-07T01:28:30;95996.72;;;1.36;100.00
57606;BME280;43430;48.204;11.556;2022-12-07T01:31:17;95996.53;;;1.46;100.00
57606;BME280;43430;48.204;11.556;2022-12-07T01:33:45;96005.63;;;1.58;100.00
57606;BME280;43430;48.204;11.556;2022-12-07T01:36:24;95995.72;;;1.54;100.00
57606;BME280;43430;48.204;11.556;2022-12-07T01:38:51;96005.75;;;1.65;100.00
57606;BME280;43430;48.204;11.556;2022-12-07T01:41:18;95990.03;;;1.66;100.00
57606;BME280;43430;48.204;11.556;2022-12-07T01:44:10;96001.25;;;1.51;100.00
57606;BME280;43430;48.204;11.556;2022-12-07T01:46:36;95993.63;;;1.49;100.00
57606;BME280;43430;48.204;11.556;2022-12-07T01:49:04;95989.22;;;1.58;100.00
57606;BME280;43430;48.204;11.556;2022-12-07T01:51:31;95991.66;;;1.59;100.00
57606;BME280;43430;48.204;11.556;2022-12-07T01:53:57;95990.53;;;1.62;100.00
57606;BME280;43430;48.204;11.556;2022-12-07T01:56:25;95993.94;;;1.54;100.00
57606;BME280;43430;48.204;11.556;2022-12-07T01:58:52;95993.78;;;1.56;100.00
57606;BME280;43430;48.204;11.556;2022-12-07T02:01:19;95989.75;;;1.45;100.00
57606;BME280;43430;48.204;11.556;2022-12-07T02:03:45;95991.34;;;1.46;100.00
57606;BME280;43430;48.204;11.556;2022-12-07T02:06:16;95993.28;;;1.60;100.00
57606;BME280;43430;48.204;11.556;2022-12-07T02:08:44;95993.78;;;1.48;100.00
57606;BME280;43430;48.204;11.556;2022-12-07T02:11:10;95991.50;;;1.53;100.00
57606;BME280;43430;48.204;11.556;2022-12-07T02:13:38;95979.16;;;1.55;100.00
57606;BME280;43430;48.204;11.556;2022-12-07T02:19:09;95984.22;;;1.48;100.00
57606;BME280;43430;48.204;11.556;2022-12-07T02:27:52;95981.75;;;1.47;100.00
57606;BME280;43430;48.204;11.556;2022-12-07T02:30:22;95973.47;;;1.51;100.00
57606;BME280;43430;48.204;11.556;2022-12-07T02:35:39;95972.34;;;1.46;100.00
57606;BME280;43430;48.204;11.556;2022-12-07T02:38:26;95974.63;;;1.49;100.00
57606;BME280;43430;48.204;11.556;2022-12-07T02:41:09;95974.81;;;1.39;100.00
57606;BME280;43430;48.204;11.556;2022-12-07T02:43:42;95972.03;;;1.49;100.00
57606;BME280;43430;48.204;11.556;2022-12-07T02:46:15;95966.84;;;1.49;100.00
57606;BME280;43430;48.204;11.556;2022-12-07T02:48:43;95972.84;;;1.41;100.00
57606;BME280;43430;48.204;11.556;2022-12-07T02:51:08;95967.16;;;1.37;100.00
57606;BME280;43430;48.204;11.556;2022-12-07T03:07:08;95967.81;;;1.23;100.00
57606;BME280;43430;48.204;11.556;2022-12-07T03:09:45;95969.78;;;1.29;100.00
57606;BME280;43430;48.204;11.556;2022-12-07T03:12:18;95963.59;;;1.30;100.00
57606;BME280;43430;48.204;11.556;2022-12-07T03:15:00;95968.66;;;1.32;100.00
57606;BME280;43430;48.204;11.556;2022-12-07T03:17:32;95970.22;;;1.41;100.00
57606;BME280;43430;48.204;11.556;2022-12-07T03:20:00;95960.81;;;1.40;100.00
57606;BME280;43430;48.204;11.556;2022-12-07T03:22:29;95967.16;;;1.37;100.00
57606;BME280;43430;48.204;11.556;2022-12-07T03:24:59;95963.91;;;1.43;100.00
57606;BME280;43430;48.204;11.556;2022-12-07T03:27:29;95971.03;;;1.50;100.00
57606;BME280;43430;48.204;11.556;2022-12-07T03:30:01;95965.53;;;1.36;100.00
57606;BME280;43430;48.204;11.556;2022-12-07T03:32:53;95971.06;;;1.41;100.00
57606;BME280;43430;48.204;11.556;2022-12-07T03:35:27;95960.97;;;1.47;100.00
57606;BME280;43430;48.204;11.556;2022-12-07T03:37:55;95960.69;;;1.41;100.00
57606;BME280;43430;48.204;11.556;2022-12-07T03:40:37;95956.59;;;1.47;100.00
57606;BME280;43430;48.204;11.556;2022-12-07T03:43:04;95957.44;;;1.39;100.00
57606;BME280;43430;48.204;11.556;2022-12-07T03:48:41;95968.16;;;1.28;100.00
57606;BME280;43430;48.204;11.556;2022-12-07T03:51:42;95964.44;;;1.31;100.00
57606;BME280;43430;48.204;11.556;2022-12-07T03:54:19;95960.84;;;1.24;100.00
57606;BME280;43430;48.204;11.556;2022-12-07T03:56:47;95964.09;;;1.26;100.00
57606;BME280;43430;48.204;11.556;2022-12-07T03:59:14;95960.66;;;1.33;100.00
57606;BME280;43430;48.204;11.556;2022-12-07T04:01:52;95954.16;;;1.37;100.00
57606;BME280;43430;48.204;11.556;2022-12-07T04:04:18;95958.72;;;1.35;100.00
57606;BME280;43430;48.204;11.556;2022-12-07T04:06:44;95950.59;;;1.30;100.00
57606;BME280;43430;48.204;11.556;2022-12-07T04:09:09;95947.06;;;1.31;100.00
57606;BME280;43430;48.204;11.556;2022-12-07T04:11:34;95949.47;;;1.33;100.00
57606;BME280;43430;48.204;11.556;2022-12-07T04:14:00;95951.09;;;1.34;100.00
57606;BME280;43430;48.204;11.556;2022-12-07T04:16:47;95952.56;;;1.28;100.00
57606;BME280;43430;48.204;11.556;2022-12-07T04:19:13;95953.38;;;1.12;100.00
57606;BME280;43430;48.204;11.556;2022-12-07T04:21:39;95956.00;;;1.04;100.00
57606;BME280;43430;48.204;11.556;2022-12-07T04:24:04;95966.22;;;1.14;100.00
57606;BME280;43430;48.204;11.556;2022-12-07T04:26:30;95961.19;;;1.21;100.00
57606;BME280;43430;48.204;11.556;2022-12-07T04:28:55;95958.41;;;1.22;100.00
57606;BME280;43430;48.204;11.556;2022-12-07T04:31:20;95957.28;;;1.25;100.00
57606;BME280;43430;48.204;11.556;2022-12-07T04:33:46;95954.16;;;1.37;100.00
57606;BME280;43430;48.204;11.556;2022-12-07T04:36:11;95952.75;;;1.10;100.00
57606;BME280;43430;48.204;11.556;2022-12-07T04:38:37;95965.56;;;1.04;100.00
57606;BME280;43430;48.204;11.556;2022-12-07T04:41:06;95952.59;;;1.04;100.00
57606;BME280;43430;48.204;11.556;2022-12-07T04:43:32;95964.75;;;1.03;100.00
57606;BME280;43430;48.204;11.556;2022-12-07T04:45:58;95961.19;;;1.04;100.00
57606;BME280;43430;48.204;11.556;2022-12-07T04:48:23;95969.44;;;1.16;100.00
57606;BME280;43430;48.204;11.556;2022-12-07T04:50:49;95959.41;;;1.21;100.00
57606;BME280;43430;48.204;11.556;2022-12-07T04:53:17;95961.66;;;1.16;100.00
57606;BME280;43430;48.204;11.556;2022-12-07T04:55:44;95969.47;;;1.24;100.00
57606;BME280;43430;48.204;11.556;2022-12-07T04:58:09;95971.38;;;1.30;100.00
57606;BME280;43430;48.204;11.556;2022-12-07T05:00:34;95961.81;;;1.23;100.00
57606;BME280;43430;48.204;11.556;2022-12-07T05:03:00;95969.44;;;1.16;100.00
57606;BME280;43430;48.204;11.556;2022-12-07T05:05:25;95967.50;;;1.26;100.00
57606;BME280;43430;48.204;11.556;2022-12-07T05:07:51;95968.47;;;1.25;100.00
57606;BME280;43430;48.204;11.556;2022-12-07T05:10:16;95968.16;;;1.28;100.00
57606;BME280;43430;48.204;11.556;2022-12-07T05:12:42;95971.72;;;1.35;100.00
57606;BME280;43430;48.204;11.556;2022-12-07T05:15:07;95974.50;;;1.17;100.00
57606;BME280;43430;48.204;11.556;2022-12-07T05:17:33;95970.44;;;1.07;100.00
57606;BME280;43430;48.204;11.556;2022-12-07T05:19:58;95971.41;;;1.14;100.00
57606;BME280;43430;48.204;11.556;2022-12-07T05:22:24;95968.81;;;1.14;100.00
57606;BME280;43430;48.204;11.556;2022-12-07T05:24:53;95968.16;;;1.12;100.00
57606;BME280;43430;48.204;11.556;2022-12-07T05:27:19;95971.41;;;1.22;100.00
57606;BME280;43430;48.204;11.556;2022-12-07T05:29:44;95967.50;;;1.26;100.00
57606;BME280;43430;48.204;11.556;2022-12-07T05:32:10;95958.59;;;1.12;100.00
57606;BME280;43430;48.204;11.556;2022-12-07T05:34:35;95965.09;;;1.08;100.00
57606;BME280;43430;48.204;11.556;2022-12-07T05:37:01;95965.09;;;1.08;100.00
57606;BME280;43430;48.204;11.556;2022-12-07T05:39:26;95973.34;;;1.12;100.00
57606;BME280;43430;48.204;11.556;2022-12-07T05:41:51;95967.84;;;1.15;100.00
57606;BME280;43430;48.204;11.556;2022-12-07T05:44:35;95962.16;;;1.19;100.00
57606;BME280;43430;48.204;11.556;2022-12-07T05:47:00;95959.72;;;1.02;100.00
57606;BME280;43430;48.204;11.556;2022-12-07T05:49:26;95970.75;;;0.95;100.00
57606;BME280;43430;48.204;11.556;2022-12-07T05:51:51;95962.97;;;0.87;100.00
57606;BME280;43430;48.204;11.556;2022-12-07T05:54:17;95965.41;;;0.81;100.00
57606;BME280;43430;48.204;11.556;2022-12-07T05:56:42;95967.50;;;0.85;100.00
57606;BME280;43430;48.204;11.556;2022-12-07T05:59:08;95970.09;;;0.77;100.00
57606;BME280;43430;48.204;11.556;2022-12-07T06:04:16;95968.47;;;0.92;100.00
57606;BME280;43430;48.204;11.556;2022-12-07T06:06:41;95975.16;;;0.87;100.00
57606;BME280;43430;48.204;11.556;2022-12-07T06:09:07;95974.50;;;0.93;100.00
57606;BME280;43430;48.204;11.556;2022-12-07T06:11:32;95970.28;;;1.00;100.00
57606;BME280;43430;48.204;11.556;2022-12-07T06:14:16;95972.03;;;1.00;100.00
57606;BME280;43430;48.204;11.556;2022-12-07T06:16:41;95972.03;;;1.00;100.00
57606;BME280;43430;48.204;11.556;2022-12-07T06:19:07;95971.09;;;1.01;100.00
57606;BME280;43430;48.204;11.556;2022-12-07T06:21:32;95970.91;;;1.02;100.00
57606;BME280;43430;48.204;11.556;2022-12-07T06:23:58;95979.50;;;1.03;100.00
57606;BME280;43430;48.204;11.556;2022-12-07T06:26:23;95969.28;;;1.09;100.00
57606;BME280;43430;48.204;11.556;2022-12-07T06:28:48;95973.84;;;0.99;100.00
57606;BME280;43430;48.204;11.556;2022-12-07T06:31:14;95981.13;;;0.87;100.00
57606;BME280;43430;48.204;11.556;2022-12-07T06:33:40;95988.28;;;1.02;100.00
57606;BME280;43430;48.204;11.556;2022-12-07T06:36:06;95980.50;;;1.02;100.00
57606;BME280;43430;48.204;11.556;2022-12-07T06:38:31;95981.81;;;0.98;100.00
57606;BME280;43430;48.204;11.556;2022-12-07T06:40:57;95989.41;;;0.99;100.00
57606;BME280;43430;48.204;11.556;2022-12-07T06:43:22;95987.47;;;0.93;100.00
57606;BME280;43430;48.204;11.556;2022-12-07T06:45:47;95983.09;;;0.93;100.00
57606;BME280;43430;48.204;11.556;2022-12-07T06:48:13;95982.59;;;1.06;100.00
57606;BME280;43430;48.204;11.556;2022-12-07T06:50:38;95989.25;;;1.09;100.00
57606;BME280;43430;48.204;11.556;2022-12-07T06:53:03;95985.84;;;1.08;100.00
57606;BME280;43430;48.204;11.556;2022-12-07T06:55:29;95984.22;;;1.15;100.00
57606;BME280;43430;48.204;11.556;2022-12-07T06:57:54;95987.66;;;1.08;100.00
57606;BME280;43430;48.204;11.556;2022-12-07T07:00:19;95978.38;;;1.13;100.00
57606;BME280;43430;48.204;11.556;2022-12-07T07:02:45;95990.22;;;1.00;100.00
57606;BME280;43430;48.204;11.556;2022-12-07T07:05:10;95984.06;;;0.92;100.00
57606;BME280;43430;48.204;11.556;2022-12-07T07:07:35;95986.66;;;1.01;100.00
57606;BME280;43430;48.204;11.556;2022-12-07T07:10:01;95988.09;;;1.03;100.00
57606;BME280;43430;48.204;11.556;2022-12-07T07:12:26;95998.19;;;1.06;100.00
57606;BME280;43430;48.204;11.556;2022-12-07T07:14:52;95984.22;;;0.99;100.00
57606;BME280;43430;48.204;11.556;2022-12-07T07:17:17;95985.38;;;1.05;100.00
57606;BME280;43430;48.204;11.556;2022-12-07T07:19:42;95993.00;;;1.14;100.00
57606;BME280;43430;48.204;11.556;2022-12-07T07:22:08;95980.81;;;1.15;100.00
57606;BME280;43430;48.204;11.556;2022-12-07T07:24:33;95992.19;;;1.14;100.00
57606;BME280;43430;48.204;11.556;2022-12-07T07:26:58;95984.56;;;1.04;100.00
57606;BME280;43430;48.204;11.556;2022-12-07T07:29:24;95991.22;;;1.07;100.00
57606;BME280;43430;48.204;11.556;2022-12-07T07:31:49;95992.81;;;1.16;100.00
57606;BME280;43430;48.204;11.556;2022-12-07T07:34:14;95995.59;;;1.23;100.00
57606;BME280;43430;48.204;11.556;2022-12-07T07:36:40;95996.72;;;1.20;100.00
57606;BME280;43430;48.204;11.556;2022-12-07T07:39:05;95996.06;;;1.10;100.00
57606;BME280;43430;48.204;11.556;2022-12-07T07:41:32;95996.56;;;1.13;100.00
57606;BME280;43430;48.204;11.556;2022-12-07T07:43:57;95994.78;;;1.14;100.00
57606;BME280;43430;48.204;11.556;2022-12-07T07:46:23;95988.28;;;1.18;100.00
57606;BME280;43430;48.204;11.556;2022-12-07T07:48:48;95987.00;;;1.22;100.00
57606;BME280;43430;48.204;11.556;2022-12-07T07:51:14;95988.63;;;1.15;100.00
57606;BME280;43430;48.204;11.556;2022-12-07T07:53:39;95986.19;;;1.22;100.00
57606;BME280;43430;48.204;11.556;2022-12-07T07:56:04;95981.97;;;1.21;100.00
57606;BME280;43430;48.204;11.556;2022-12-07T07:58:30;95984.38;;;1.22;100.00
57606;BME280;43430;48.204;11.556;2022-12-07T08:00:55;95980.50;;;1.18;100.00
57606;BME280;43430;48.204;11.556;2022-12-07T08:03:21;95986.00;;;1.23;100.00
57606;BME280;43430;48.204;11.556;2022-12-07T08:05:46;95983.56;;;1.30;100.00
57606;BME280;43430;48.204;11.556;2022-12-07T08:08:11;95985.69;;;1.26;100.00
57606;BME280;43430;48.204;11.556;2022-12-07T08:10:37;95983.41;;;1.31;100.00
57606;BME280;43430;48.204;11.556;2022-12-07T08:13:02;95986.66;;;1.33;100.00
57606;BME280;43430;48.204;11.556;2022-12-07T08:15:40;95994.63;;;1.32;100.00
57606;BME280;43430;48.204;11.556;2022-12-07T08:18:06;95990.41;;;1.31;100.00
57606;BME280;43430;48.204;11.556;2022-12-07T08:20:32;95988.13;;;1.28;100.00
57606;BME280;43430;48.204;11.556;2022-12-07T08:22:58;95993.78;;;1.39;100.00
57606;BME280;43430;48.204;11.556;2022-12-07T08:25:24;95993.28;;;1.44;100.00
57606;BME280;43430;48.204;11.556;2022-12-07T08:27:51;95995.72;;;1.37;100.00
57606;BME280;43430;48.204;11.556;2022-12-07T08:30:16;95996.72;;;1.36;100.00
57606;BME280;43430;48.204;11.556;2022-12-07T08:32:44;95994.63;;;1.32;100.00
57606;BME280;43430;48.204;11.556;2022-12-07T08:35:09;95998.34;;;1.46;100.00
57606;BME280;43430;48.204;11.556;2022-12-07T08:37:35;95997.06;;;1.41;100.00
57606;BME280;43430;48.204;11.556;2022-12-07T08:40:01;96001.91;;;1.36;100.00
57606;BME280;43430;48.204;11.556;2022-12-07T08:42:26;95998.34;;;1.46;100.00
57606;BME280;43430;48.204;11.556;2022-12-07T08:44:56;95993.44;;;1.51;100.00
57606;BME280;43430;48.204;11.556;2022-12-07T08:47:23;95992.97;;;1.47;100.00
57606;BME280;43430;48.204;11.556;2022-12-07T08:49:51;95991.34;;;1.62;100.00
57606;BME280;43430;48.204;11.556;2022-12-07T08:52:18;95985.97;;;1.72;100.00
57606;BME280;43430;48.204;11.556;2022-12-07T08:54:44;95991.75;;;1.82;100.00
57606;BME280;43430;48.204;11.556;2022-12-07T08:57:10;95993.72;;;1.80;100.00
57606;BME280;43430;48.204;11.556;2022-12-07T08:59:37;95987.25;;;1.76;100.00
57606;BME280;43430;48.204;11.556;2022-12-07T09:02:04;95981.38;;;1.74;100.00
57606;BME280;43430;48.204;11.556;2022-12-07T09:04:30;95986.44;;;1.67;100.00
57606;BME280;43430;48.204;11.556;2022-12-07T09:06:56;95980.53;;;1.82;100.00
57606;BME280;43430;48.204;11.556;2022-12-07T09:09:21;95974.34;;;1.91;100.00
57606;BME280;43430;48.204;11.556;2022-12-07T09:11:47;95980.69;;;1.88;100.00
57606;BME280;43430;48.204;11.556;2022-12-07T09:14:13;95983.28;;;1.88;100.00
57606;BME280;43430;48.204;11.556;2022-12-07T09:16:39;95978.69;;;2.07;100.00
57606;BME280;43430;48.204;11.556;2022-12-07T09:19:04;95968.78;;;2.10;100.00
57606;BME280;43430;48.204;11.556;2022-12-07T09:21:29;95970.19;;;2.13;100.00
57606;BME280;43430;48.204;11.556;2022-12-07T09:23:55;95968.78;;;2.10;100.00
57606;BME280;43430;48.204;11.556;2022-12-07T09:26:21;95971.19;;;2.12;100.00
57606;BME280;43430;48.204;11.556;2022-12-07T09:28:47;95976.72;;;2.09;100.00
57606;BME280;43430;48.204;11.556;2022-12-07T09:31:12;95972.66;;;2.14;100.00
57606;BME280;43430;48.204;11.556;2022-12-07T09:33:37;95972.47;;;2.16;100.00
57606;BME280;43430;48.204;11.556;2022-12-07T09:36:03;95974.78;;;2.11;100.00
57606;BME280;43430;48.204;11.556;2022-12-07T09:38:28;95962.06;;;2.16;100.00
57606;BME280;43430;48.204;11.556;2022-12-07T09:40:55;95960.41;;;2.23;100.00
57606;BME280;43430;48.204;11.556;2022-12-07T09:43:23;95962.34;;;2.29;100.00
57606;BME280;43430;48.204;11.556;2022-12-07T09:45:54;95956.19;;;2.22;100.00
57606;BME280;43430;48.204;11.556;2022-12-07T09:48:23;95952.69;;;2.38;100.00
57606;BME280;43430;48.204;11.556;2022-12-07T09:50:52;95959.44;;;2.24;100.00
57606;BME280;43430;48.204;11.556;2022-12-07T09:53:36;95951.59;;;2.32;100.00
57606;BME280;43430;48.204;11.556;2022-12-07T09:56:03;95947.25;;;2.48;100.00
57606;BME280;43430;48.204;11.556;2022-12-07T09:58:30;95939.94;;;2.51;100.00
57606;BME280;43430;48.204;11.556;2022-12-07T10:00:59;95936.69;;;2.49;100.00
57606;BME280;43430;48.204;11.556;2022-12-07T10:03:29;95930.34;;;2.52;100.00
57606;BME280;43430;48.204;11.556;2022-12-07T10:05:55;95926.50;;;2.40;100.00
57606;BME280;43430;48.204;11.556;2022-12-07T10:08:22;95927.84;;;2.58;100.00
57606;BME280;43430;48.204;11.556;2022-12-07T10:10:53;95922.69;;;2.50;100.00
57606;BME280;43430;48.204;11.556;2022-12-07T10:13:21;95919.75;;;2.53;100.00
57606;BME280;43430;48.204;11.556;2022-12-07T10:15:56;95925.06;;;2.60;100.00
57606;BME280;43430;48.204;11.556;2022-12-07T10:21:10;95914.97;;;2.65;100.00
57606;BME280;43430;48.204;11.556;2022-12-07T10:23:42;95918.19;;;2.67;100.00
57606;BME280;43430;48.204;11.556;2022-12-07T10:26:34;95915.59;;;2.67;100.00
57606;BME280;43430;48.204;11.556;2022-12-07T10:29:04;95915.88;;;2.72;100.00
57606;BME280;43430;48.204;11.556;2022-12-07T10:31:39;95909.97;;;2.78;100.00
57606;BME280;43430;48.204;11.556;2022-12-07T10:34:26;95911.72;;;2.63;100.00
57606;BME280;43430;48.204;11.556;2022-12-07T10:36:53;95907.31;;;2.64;100.00
57606;BME280;43430;48.204;11.556;2022-12-07T10:39:22;95900.25;;;2.72;100.00
57606;BME280;43430;48.204;11.556;2022-12-07T10:42:15;95895.75;;;2.66;100.00
57606;BME280;43430;48.204;11.556;2022-12-07T10:44:41;95899.50;;;2.64;100.00
57606;BME280;43430;48.204;11.556;2022-12-07T10:47:44;95895.44;;;2.61;100.00
57606;BME280;43430;48.204;11.556;2022-12-07T10:56:18;95870.91;;;2.78;100.00
57606;BME280;43430;48.204;11.556;2022-12-07T10:59:00;95879.22;;;2.59;100.00
57606;BME280;43430;48.204;11.556;2022-12-07T11:01:36;95871.22;;;2.60;100.00
57606;BME280;43430;48.204;11.556;2022-12-07T11:14:58;95864.63;;;2.50;100.00
57606;BME280;43430;48.204;11.556;2022-12-07T11:20:20;95855.22;;;2.49;100.00
57606;BME280;43430;48.204;11.556;2022-12-07T11:25:48;95844.84;;;2.64;100.00
57606;BME280;43430;48.204;11.556;2022-12-07T11:37:30;95829.91;;;2.80;100.00
57606;BME280;43430;48.204;11.556;2022-12-07T11:40:02;95831.91;;;2.93;100.00
57606;BME280;43430;48.204;11.556;2022-12-07T11:42:34;95832.72;;;3.08;100.00
57606;BME280;43430;48.204;11.556;2022-12-07T11:45:12;95819.59;;;3.02;100.00
57606;BME280;43430;48.204;11.556;2022-12-07T11:47:58;95820.50;;;2.94;100.00
57606;BME280;43430;48.204;11.556;2022-12-07T11:50:32;95809.97;;;3.02;100.00
57606;BME280;43430;48.204;11.556;2022-12-07T11:53:05;95803.44;;;3.21;100.00
57606;BME280;43430;48.204;11.556;2022-12-07T12:01:31;95801.38;;;3.31;100.00
57606;BME280;43430;48.204;11.556;2022-12-07T12:04:19;95799.13;;;3.28;100.00
57606;BME280;43430;48.204;11.556;2022-12-07T12:06:48;95802.63;;;3.36;100.00
57606;BME280;43430;48.204;11.556;2022-12-07T12:14:40;95784.34;;;3.50;100.00
57606;BME280;43430;48.204;11.556;2022-12-07T12:17:42;95787.50;;;3.46;100.00
57606;BME280;43430;48.204;11.556;2022-12-07T12:20:35;95773.84;;;3.59;100.00
57606;BME280;43430;48.204;11.556;2022-12-07T12:25:54;95779.88;;;3.29;100.00
57606;BME280;43430;48.204;11.556;2022-12-07T12:28:26;95770.78;;;3.55;100.00
57606;BME280;43430;48.204;11.556;2022-12-07T12:31:14;95767.44;;;3.61;100.00
57606;BME280;43430;48.204;11.556;2022-12-07T12:33:47;95774.03;;;3.42;100.00
57606;BME280;43430;48.204;11.556;2022-12-07T12:44:00;95768.06;;;3.63;100.00
57606;BME280;43430;48.204;11.556;2022-12-07T12:49:32;95749.84;;;3.85;100.00
57606;BME280;43430;48.204;11.556;2022-12-07T12:51:59;95750.72;;;3.92;100.00
57606;BME280;43430;48.204;11.556;2022-12-07T12:54:29;95748.50;;;4.10;100.00
57606;BME280;43430;48.204;11.556;2022-12-07T12:57:19;95752.59;;;4.19;100.00
57606;BME280;43430;48.204;11.556;2022-12-07T13:02:27;95739.31;;;3.93;100.00
57606;BME280;43430;48.204;11.556;2022-12-07T13:05:02;95737.38;;;4.01;100.00
57606;BME280;43430;48.204;11.556;2022-12-07T13:10:50;95736.63;;;3.86;100.00
57606;BME280;43430;48.204;11.556;2022-12-07T13:20:58;95741.59;;;3.81;100.00
57606;BME280;43430;48.204;11.556;2022-12-07T13:23:32;95733.31;;;3.99;100.00
57606;BME280;43430;48.204;11.556;2022-12-07T13:28:47;95732.84;;;4.10;100.00
57606;BME280;43430;48.204;11.556;2022-12-07T13:33:54;95735.97;;;3.63;100.00
57606;BME280;43430;48.204;11.556;2022-12-07T13:36:23;95730.41;;;3.66;100.00
57606;BME280;43430;48.204;11.556;2022-12-07T13:38:55;95733.38;;;3.84;100.00
57606;BME280;43430;48.204;11.556;2022-12-07T13:41:23;95739.53;;;3.98;100.00
57606;BME280;43430;48.204;11.556;2022-12-07T13:44:12;95728.38;;;3.83;100.00
57606;BME280;43430;48.204;11.556;2022-12-07T13:46:51;95730.28;;;3.95;100.00
57606;BME280;43430;48.204;11.556;2022-12-07T13:49:26;95732.09;;;3.73;100.00
57606;BME280;43430;48.204;11.556;2022-12-07T13:51:53;95733.44;;;3.69;100.00
57606;BME280;43430;48.204;11.556;2022-12-07T13:54:19;95730.94;;;3.61;100.00
57606;BME280;43430;48.204;11.556;2022-12-07T13:56:49;95730.75;;;3.63;100.00
57606;BME280;43430;48.204;11.556;2022-12-07T13:59:18;95735.47;;;3.52;100.00
57606;BME280;43430;48.204;11.556;2022-12-07T14:01:45;95735.84;;;3.49;100.00
57606;BME280;43430;48.204;11.556;2022-12-07T14:06:49;95734.16;;;3.42;100.00
57606;BME280;43430;48.204;11.556;2022-12-07T14:09:19;95734.78;;;3.29;100.00
57606;BME280;43430;48.204;11.556;2022-12-07T14:11:46;95738.22;;;3.15;100.00
57606;BME280;43430;48.204;11.556;2022-12-07T14:14:16;95737.41;;;3.14;100.00
57606;BME280;43430;48.204;11.556;2022-12-07T14:16:43;95739.09;;;3.22;100.00
57606;BME280;43430;48.204;11.556;2022-12-07T14:19:44;95737.34;;;3.07;100.00
57606;BME280;43430;48.204;11.556;2022-12-07T14:25:19;95731.31;;;3.07;100.00
57606;BME280;43430;48.204;11.556;2022-12-07T14:30:20;95725.09;;;3.08;100.00
57606;BME280;43430;48.204;11.556;2022-12-07T14:32:48;95724.91;;;3.09;100.00
57606;BME280;43430;48.204;11.556;2022-12-07T14:35:17;95727.91;;;3.06;100.00
57606;BME280;43430;48.204;11.556;2022-12-07T14:37:45;95727.47;;;3.03;100.00
57606;BME280;43430;48.204;11.556;2022-12-07T14:40:22;95729.53;;;2.93;100.00
57606;BME280;43430;48.204;11.556;2022-12-07T14:42:51;95732.75;;;2.95;100.00
57606;BME280;43430;48.204;11.556;2022-12-07T14:45:20;95736.09;;;3.03;100.00
57606;BME280;43430;48.204;11.556;2022-12-07T14:47:47;95746.13;;;3.06;100.00
57606;BME280;43430;48.204;11.556;2022-12-07T14:50:15;95742.81;;;2.83;100.00
57606;BME280;43430;48.204;11.556;2022-12-07T14:52:42;95756.63;;;2.83;100.00
57606;BME280;43430;48.204;11.556;2022-12-07T14:55:23;95750.78;;;2.81;100.00
57606;BME280;43430;48.204;11.556;2022-12-07T14:57:48;95749.44;;;2.85;100.00
57606;BME280;43430;48.204;11.556;2022-12-07T15:00:15;95755.19;;;2.81;100.00